Defiance, Ohio
Current Conditions -  °F | °C
As of 6:53 AM on Tuesday 21 Oct 2014 (Local Time) from KDFI Reporting Station
Overcast Overcast  
Wind Chill: 44°   Ceiling: 5500
Heat Index: 48°   Visibility: 10mi
Dew Point: 43°   Wind: 9mph
Humidity: 83%   Direction: 310°NW
Pressure: 29.97"   Gusts: NA
Location:  41.29°N, 84.36°W
Report Text: KDFI 211053Z AUTO 31008KT 10SM SCT025 OVC055 09/06 A2997 RMK AO2 SLP150 T00890061
Loading
Personal Weather Stations






























Interactive Weather Map
Tropical Storm Tracking
New forecast layout! Learn more

10-Day Weather Forecast

Advertisements
Track Severe Weather on mobile